首页
METAR-TAF:

METAR-TAF

机场 :

奥罗拉, 伊利诺伊州, 美国

纬度: 41-46-12N, 经度: 088-28-53W, 海拔: 215米

当前天气观测

该预报发布于9分钟前的06:52 UTC
风速5节,风向西
温度 12°C
湿度 82%
气压 1008 hPa
能見度: 14.5公里
散云层高于1300英尺
阴天层高于2600英尺

METAR: KARR 200652Z AUTO 27005KT 9SM SCT013 OVC026 12/09 A2978 RMK AO2 SLP083 T01170094 TSNO

时间: 02:01 (07:01 UTC)


TAF: 丢失

超过4000个机场的气象观测和天气预报(METAR&TAF报告)。

可查询的气象台以黄色和红色小点在地图上表示。

将鼠标移到小点上方,可查看气象台名称。

然后点击查看天气观测和预报。

如需切换地图:点击带黑十字的绿色按钮放大地图;点击带横线的绿色按钮缩小地图;或者点击绿色箭头查看邻近地区的地图。


METAR-TAF: